sensor_id;sensor_type;location;lat;lon;timestamp;P1;durP1;ratioP1;P2;durP2;ratioP2
15167;SDS011;7684;52.150;11.656;2022-09-09T00:01:47;5.27;;;4.77;;
15167;SDS011;7684;52.150;11.656;2022-09-09T00:04:18;5.20;;;4.77;;
15167;SDS011;7684;52.150;11.656;2022-09-09T00:06:49;5.53;;;5.00;;
15167;SDS011;7684;52.150;11.656;2022-09-09T00:09:17;8.33;;;5.53;;
15167;SDS011;7684;52.150;11.656;2022-09-09T00:11:46;5.17;;;4.67;;
15167;SDS011;7684;52.150;11.656;2022-09-09T00:14:17;5.83;;;5.27;;
15167;SDS011;7684;52.150;11.656;2022-09-09T00:16:47;6.43;;;5.30;;
15167;SDS011;7684;52.150;11.656;2022-09-09T00:19:18;7.17;;;5.57;;
15167;SDS011;7684;52.150;11.656;2022-09-09T00:21:47;5.40;;;4.90;;
15167;SDS011;7684;52.150;11.656;2022-09-09T00:24:22;5.60;;;5.10;;
15167;SDS011;7684;52.150;11.656;2022-09-09T00:26:51;5.53;;;4.93;;
15167;SDS011;7684;52.150;11.656;2022-09-09T00:29:22;5.30;;;4.80;;
15167;SDS011;7684;52.150;11.656;2022-09-09T00:31:51;5.17;;;4.67;;
15167;SDS011;7684;52.150;11.656;2022-09-09T00:34:21;5.03;;;4.53;;
15167;SDS011;7684;52.150;11.656;2022-09-09T00:36:49;4.53;;;4.13;;
15167;SDS011;7684;52.150;11.656;2022-09-09T00:39:20;5.00;;;3.80;;
15167;SDS011;7684;52.150;11.656;2022-09-09T00:41:50;4.43;;;4.00;;
15167;SDS011;7684;52.150;11.656;2022-09-09T00:44:20;4.30;;;3.90;;
15167;SDS011;7684;52.150;11.656;2022-09-09T00:46:56;4.80;;;4.13;;
15167;SDS011;7684;52.150;11.656;2022-09-09T00:49:30;4.60;;;3.60;;
15167;SDS011;7684;52.150;11.656;2022-09-09T00:51:59;6.40;;;3.77;;
15167;SDS011;7684;52.150;11.656;2022-09-09T00:54:31;4.10;;;3.70;;
15167;SDS011;7684;52.150;11.656;2022-09-09T00:57:02;4.17;;;3.53;;
15167;SDS011;7684;52.150;11.656;2022-09-09T00:59:32;3.63;;;3.33;;
15167;SDS011;7684;52.150;11.656;2022-09-09T01:02:02;4.03;;;3.40;;
15167;SDS011;7684;52.150;11.656;2022-09-09T01:04:29;5.00;;;3.83;;
15167;SDS011;7684;52.150;11.656;2022-09-09T01:07:01;3.83;;;3.53;;
15167;SDS011;7684;52.150;11.656;2022-09-09T01:09:30;5.10;;;3.57;;
15167;SDS011;7684;52.150;11.656;2022-09-09T01:11:59;4.50;;;3.30;;
15167;SDS011;7684;52.150;11.656;2022-09-09T01:14:30;4.30;;;2.93;;
15167;SDS011;7684;52.150;11.656;2022-09-09T01:16:59;3.47;;;2.50;;
15167;SDS011;7684;52.150;11.656;2022-09-09T01:19:35;2.97;;;2.63;;
15167;SDS011;7684;52.150;11.656;2022-09-09T01:22:06;4.77;;;2.57;;
15167;SDS011;7684;52.150;11.656;2022-09-09T01:24:38;4.57;;;2.67;;
15167;SDS011;7684;52.150;11.656;2022-09-09T01:27:08;2.40;;;2.20;;
15167;SDS011;7684;52.150;11.656;2022-09-09T01:29:35;3.47;;;2.30;;
15167;SDS011;7684;52.150;11.656;2022-09-09T01:32:02;3.63;;;2.30;;
15167;SDS011;7684;52.150;11.656;2022-09-09T01:34:30;2.43;;;2.10;;
15167;SDS011;7684;52.150;11.656;2022-09-09T01:36:57;3.70;;;2.20;;
15167;SDS011;7684;52.150;11.656;2022-09-09T01:39:25;2.97;;;2.37;;
15167;SDS011;7684;52.150;11.656;2022-09-09T01:41:51;4.07;;;2.00;;
15167;SDS011;7684;52.150;11.656;2022-09-09T01:44:20;4.13;;;2.00;;
15167;SDS011;7684;52.150;11.656;2022-09-09T01:46:46;2.00;;;1.90;;
15167;SDS011;7684;52.150;11.656;2022-09-09T01:49:13;2.77;;;2.20;;
15167;SDS011;7684;52.150;11.656;2022-09-09T01:51:39;2.17;;;1.93;;
15167;SDS011;7684;52.150;11.656;2022-09-09T01:54:07;4.33;;;2.40;;
15167;SDS011;7684;52.150;11.656;2022-09-09T01:56:35;3.20;;;2.17;;
15167;SDS011;7684;52.150;11.656;2022-09-09T01:59:08;3.87;;;1.93;;
15167;SDS011;7684;52.150;11.656;2022-09-09T02:01:43;2.40;;;1.63;;
15167;SDS011;7684;52.150;11.656;2022-09-09T02:04:17;3.53;;;1.67;;
15167;SDS011;7684;52.150;11.656;2022-09-09T02:06:44;2.10;;;1.60;;
15167;SDS011;7684;52.150;11.656;2022-09-09T02:09:12;1.93;;;1.43;;
15167;SDS011;7684;52.150;11.656;2022-09-09T02:11:38;2.87;;;1.60;;
15167;SDS011;7684;52.150;11.656;2022-09-09T02:14:06;3.83;;;1.50;;
15167;SDS011;7684;52.150;11.656;2022-09-09T02:16:36;2.47;;;1.77;;
15167;SDS011;7684;52.150;11.656;2022-09-09T02:19:06;4.87;;;2.20;;
15167;SDS011;7684;52.150;11.656;2022-09-09T02:21:34;2.60;;;2.10;;
15167;SDS011;7684;52.150;11.656;2022-09-09T02:24:02;2.00;;;1.63;;
15167;SDS011;7684;52.150;11.656;2022-09-09T02:26:30;3.00;;;2.00;;
15167;SDS011;7684;52.150;11.656;2022-09-09T02:28:57;2.20;;;1.80;;
15167;SDS011;7684;52.150;11.656;2022-09-09T02:31:25;2.23;;;1.87;;
15167;SDS011;7684;52.150;11.656;2022-09-09T02:33:52;2.37;;;1.80;;
15167;SDS011;7684;52.150;11.656;2022-09-09T02:36:21;2.70;;;1.80;;
15167;SDS011;7684;52.150;11.656;2022-09-09T02:38:49;2.07;;;1.40;;
15167;SDS011;7684;52.150;11.656;2022-09-09T02:41:19;1.70;;;1.53;;
15167;SDS011;7684;52.150;11.656;2022-09-09T02:43:47;2.23;;;1.53;;
15167;SDS011;7684;52.150;11.656;2022-09-09T02:46:18;2.03;;;1.40;;
15167;SDS011;7684;52.150;11.656;2022-09-09T02:48:51;2.10;;;1.47;;
15167;SDS011;7684;52.150;11.656;2022-09-09T02:51:23;1.87;;;1.67;;
15167;SDS011;7684;52.150;11.656;2022-09-09T02:53:51;2.37;;;1.90;;
15167;SDS011;7684;52.150;11.656;2022-09-09T02:56:21;1.90;;;1.40;;
15167;SDS011;7684;52.150;11.656;2022-09-09T02:58:53;2.40;;;1.50;;
15167;SDS011;7684;52.150;11.656;2022-09-09T03:01:20;2.20;;;1.63;;
15167;SDS011;7684;52.150;11.656;2022-09-09T03:03:46;5.37;;;2.17;;
15167;SDS011;7684;52.150;11.656;2022-09-09T03:06:13;1.93;;;1.70;;
15167;SDS011;7684;52.150;11.656;2022-09-09T03:08:40;2.80;;;2.07;;
15167;SDS011;7684;52.150;11.656;2022-09-09T03:11:07;3.70;;;2.23;;
15167;SDS011;7684;52.150;11.656;2022-09-09T03:13:35;3.50;;;1.90;;
15167;SDS011;7684;52.150;11.656;2022-09-09T03:16:02;3.73;;;2.10;;
15167;SDS011;7684;52.150;11.656;2022-09-09T03:18:29;3.37;;;2.13;;
15167;SDS011;7684;52.150;11.656;2022-09-09T03:20:57;4.07;;;2.20;;
15167;SDS011;7684;52.150;11.656;2022-09-09T03:23:25;3.30;;;2.40;;
15167;SDS011;7684;52.150;11.656;2022-09-09T03:25:53;2.90;;;2.47;;
15167;SDS011;7684;52.150;11.656;2022-09-09T03:28:22;3.67;;;2.40;;
15167;SDS011;7684;52.150;11.656;2022-09-09T03:30:57;2.93;;;2.63;;
15167;SDS011;7684;52.150;11.656;2022-09-09T03:33:24;4.10;;;2.67;;
15167;SDS011;7684;52.150;11.656;2022-09-09T03:35:50;4.80;;;2.37;;
15167;SDS011;7684;52.150;11.656;2022-09-09T03:38:17;5.87;;;2.30;;
15167;SDS011;7684;52.150;11.656;2022-09-09T03:40:48;5.20;;;2.53;;
15167;SDS011;7684;52.150;11.656;2022-09-09T03:43:16;4.87;;;2.70;;
15167;SDS011;7684;52.150;11.656;2022-09-09T03:45:44;4.40;;;2.43;;
15167;SDS011;7684;52.150;11.656;2022-09-09T03:48:11;2.67;;;2.20;;
15167;SDS011;7684;52.150;11.656;2022-09-09T03:50:38;2.70;;;2.20;;
15167;SDS011;7684;52.150;11.656;2022-09-09T03:53:04;2.50;;;1.80;;
15167;SDS011;7684;52.150;11.656;2022-09-09T03:55:31;2.47;;;2.00;;
15167;SDS011;7684;52.150;11.656;2022-09-09T03:57:57;2.53;;;2.07;;
15167;SDS011;7684;52.150;11.656;2022-09-09T04:00:26;5.57;;;2.90;;
15167;SDS011;7684;52.150;11.656;2022-09-09T04:02:54;3.87;;;2.30;;
15167;SDS011;7684;52.150;11.656;2022-09-09T04:05:22;2.70;;;2.30;;
15167;SDS011;7684;52.150;11.656;2022-09-09T04:07:49;6.03;;;3.07;;
15167;SDS011;7684;52.150;11.656;2022-09-09T04:10:16;3.27;;;2.97;;
15167;SDS011;7684;52.150;11.656;2022-09-09T04:12:42;3.97;;;3.17;;
15167;SDS011;7684;52.150;11.656;2022-09-09T04:15:09;5.57;;;2.87;;
15167;SDS011;7684;52.150;11.656;2022-09-09T04:17:37;5.83;;;2.53;;
15167;SDS011;7684;52.150;11.656;2022-09-09T04:20:03;4.20;;;2.87;;
15167;SDS011;7684;52.150;11.656;2022-09-09T04:22:30;5.03;;;2.37;;
15167;SDS011;7684;52.150;11.656;2022-09-09T04:24:57;3.10;;;2.20;;
15167;SDS011;7684;52.150;11.656;2022-09-09T04:27:23;4.27;;;2.57;;
15167;SDS011;7684;52.150;11.656;2022-09-09T04:29:49;5.57;;;2.60;;
15167;SDS011;7684;52.150;11.656;2022-09-09T04:32:16;2.73;;;2.40;;
15167;SDS011;7684;52.150;11.656;2022-09-09T04:34:44;2.47;;;2.20;;
15167;SDS011;7684;52.150;11.656;2022-09-09T04:37:12;3.90;;;2.60;;
15167;SDS011;7684;52.150;11.656;2022-09-09T04:39:39;6.37;;;2.63;;
15167;SDS011;7684;52.150;11.656;2022-09-09T04:42:05;2.83;;;2.53;;
15167;SDS011;7684;52.150;11.656;2022-09-09T04:44:32;4.53;;;2.40;;
15167;SDS011;7684;52.150;11.656;2022-09-09T04:46:58;5.10;;;3.10;;
15167;SDS011;7684;52.150;11.656;2022-09-09T04:49:24;4.73;;;2.83;;
15167;SDS011;7684;52.150;11.656;2022-09-09T04:51:52;3.40;;;2.60;;
15167;SDS011;7684;52.150;11.656;2022-09-09T04:54:19;4.90;;;2.70;;
15167;SDS011;7684;52.150;11.656;2022-09-09T04:56:45;3.20;;;1.90;;
15167;SDS011;7684;52.150;11.656;2022-09-09T04:59:12;3.67;;;2.50;;
15167;SDS011;7684;52.150;11.656;2022-09-09T05:01:38;4.40;;;2.57;;
15167;SDS011;7684;52.150;11.656;2022-09-09T05:04:05;4.10;;;2.03;;
15167;SDS011;7684;52.150;11.656;2022-09-09T05:06:32;4.07;;;2.27;;
15167;SDS011;7684;52.150;11.656;2022-09-09T05:09:00;3.33;;;2.23;;
15167;SDS011;7684;52.150;11.656;2022-09-09T05:11:27;3.90;;;2.50;;
15167;SDS011;7684;52.150;11.656;2022-09-09T05:13:54;4.13;;;2.20;;
15167;SDS011;7684;52.150;11.656;2022-09-09T05:16:21;3.30;;;2.20;;
15167;SDS011;7684;52.150;11.656;2022-09-09T05:18:47;5.57;;;2.63;;
15167;SDS011;7684;52.150;11.656;2022-09-09T05:21:15;3.30;;;1.97;;
15167;SDS011;7684;52.150;11.656;2022-09-09T05:23:42;2.03;;;1.83;;
15167;SDS011;7684;52.150;11.656;2022-09-09T05:26:11;2.63;;;1.90;;
15167;SDS011;7684;52.150;11.656;2022-09-09T05:28:38;5.33;;;1.83;;
15167;SDS011;7684;52.150;11.656;2022-09-09T05:31:06;4.13;;;2.40;;
15167;SDS011;7684;52.150;11.656;2022-09-09T05:33:33;3.10;;;1.70;;
15167;SDS011;7684;52.150;11.656;2022-09-09T05:36:00;2.90;;;1.87;;
15167;SDS011;7684;52.150;11.656;2022-09-09T05:38:27;3.07;;;2.27;;
15167;SDS011;7684;52.150;11.656;2022-09-09T05:40:54;3.20;;;1.97;;
15167;SDS011;7684;52.150;11.656;2022-09-09T05:43:22;3.17;;;1.90;;
15167;SDS011;7684;52.150;11.656;2022-09-09T05:45:58;3.47;;;2.07;;
15167;SDS011;7684;52.150;11.656;2022-09-09T05:48:27;3.43;;;2.17;;
15167;SDS011;7684;52.150;11.656;2022-09-09T05:50:54;3.10;;;1.87;;
15167;SDS011;7684;52.150;11.656;2022-09-09T05:53:20;2.43;;;1.83;;
15167;SDS011;7684;52.150;11.656;2022-09-09T05:55:47;4.20;;;2.27;;
15167;SDS011;7684;52.150;11.656;2022-09-09T05:58:13;3.30;;;2.00;;
15167;SDS011;7684;52.150;11.656;2022-09-09T06:00:44;4.17;;;2.50;;
15167;SDS011;7684;52.150;11.656;2022-09-09T06:03:10;4.47;;;1.90;;
15167;SDS011;7684;52.150;11.656;2022-09-09T06:05:37;3.60;;;2.20;;
15167;SDS011;7684;52.150;11.656;2022-09-09T06:08:03;4.77;;;2.50;;
15167;SDS011;7684;52.150;11.656;2022-09-09T06:10:32;4.17;;;2.03;;
15167;SDS011;7684;52.150;11.656;2022-09-09T06:12:59;3.50;;;2.03;;
15167;SDS011;7684;52.150;11.656;2022-09-09T06:15:25;3.90;;;2.23;;
15167;SDS011;7684;52.150;11.656;2022-09-09T06:17:55;5.20;;;2.70;;
15167;SDS011;7684;52.150;11.656;2022-09-09T06:20:23;4.60;;;2.23;;
15167;SDS011;7684;52.150;11.656;2022-09-09T06:22:49;5.90;;;2.20;;
15167;SDS011;7684;52.150;11.656;2022-09-09T06:25:16;3.47;;;2.50;;
15167;SDS011;7684;52.150;11.656;2022-09-09T06:27:43;6.13;;;2.43;;
15167;SDS011;7684;52.150;11.656;2022-09-09T06:30:14;2.83;;;2.10;;
15167;SDS011;7684;52.150;11.656;2022-09-09T06:32:42;3.37;;;2.20;;
15167;SDS011;7684;52.150;11.656;2022-09-09T06:35:09;4.03;;;2.50;;
15167;SDS011;7684;52.150;11.656;2022-09-09T06:37:36;4.87;;;2.50;;
15167;SDS011;7684;52.150;11.656;2022-09-09T06:40:03;5.63;;;2.37;;
15167;SDS011;7684;52.150;11.656;2022-09-09T06:42:30;2.80;;;2.33;;
15167;SDS011;7684;52.150;11.656;2022-09-09T06:44:56;2.93;;;2.33;;
15167;SDS011;7684;52.150;11.656;2022-09-09T06:47:22;4.03;;;2.20;;
15167;SDS011;7684;52.150;11.656;2022-09-09T06:49:49;5.27;;;2.20;;
15167;SDS011;7684;52.150;11.656;2022-09-09T06:52:17;4.00;;;2.40;;
15167;SDS011;7684;52.150;11.656;2022-09-09T06:54:43;3.67;;;2.20;;
15167;SDS011;7684;52.150;11.656;2022-09-09T06:57:10;3.47;;;1.93;;
15167;SDS011;7684;52.150;11.656;2022-09-09T06:59:37;6.33;;;2.00;;
15167;SDS011;7684;52.150;11.656;2022-09-09T07:02:03;3.97;;;2.37;;
15167;SDS011;7684;52.150;11.656;2022-09-09T07:04:30;4.00;;;2.20;;
15167;SDS011;7684;52.150;11.656;2022-09-09T07:06:57;2.63;;;2.13;;
15167;SDS011;7684;52.150;11.656;2022-09-09T07:09:25;4.70;;;2.10;;
15167;SDS011;7684;52.150;11.656;2022-09-09T07:11:52;5.30;;;2.30;;
15167;SDS011;7684;52.150;11.656;2022-09-09T07:14:19;7.43;;;2.63;;
15167;SDS011;7684;52.150;11.656;2022-09-09T07:16:47;3.67;;;2.00;;
15167;SDS011;7684;52.150;11.656;2022-09-09T07:19:14;3.77;;;1.90;;
15167;SDS011;7684;52.150;11.656;2022-09-09T07:21:40;3.23;;;2.33;;
15167;SDS011;7684;52.150;11.656;2022-09-09T07:24:06;4.97;;;2.03;;
15167;SDS011;7684;52.150;11.656;2022-09-09T07:26:36;4.57;;;2.00;;
15167;SDS011;7684;52.150;11.656;2022-09-09T07:29:03;5.88;;;2.10;;
15167;SDS011;7684;52.150;11.656;2022-09-09T07:31:30;2.70;;;1.93;;
15167;SDS011;7684;52.150;11.656;2022-09-09T07:33:57;4.10;;;1.65;;
15167;SDS011;7684;52.150;11.656;2022-09-09T07:36:26;3.65;;;1.52;;
15167;SDS011;7684;52.150;11.656;2022-09-09T07:38:53;4.30;;;1.87;;
15167;SDS011;7684;52.150;11.656;2022-09-09T07:41:22;4.65;;;2.08;;
15167;SDS011;7684;52.150;11.656;2022-09-09T07:43:50;5.03;;;1.70;;
15167;SDS011;7684;52.150;11.656;2022-09-09T07:46:19;4.70;;;1.73;;
15167;SDS011;7684;52.150;11.656;2022-09-09T07:48:46;3.58;;;1.65;;
15167;SDS011;7684;52.150;11.656;2022-09-09T07:51:17;5.18;;;1.70;;
15167;SDS011;7684;52.150;11.656;2022-09-09T07:53:45;2.95;;;1.30;;
15167;SDS011;7684;52.150;11.656;2022-09-09T07:56:13;6.63;;;1.65;;
15167;SDS011;7684;52.150;11.656;2022-09-09T07:58:40;5.95;;;1.65;;
15167;SDS011;7684;52.150;11.656;2022-09-09T08:01:09;2.88;;;1.35;;
15167;SDS011;7684;52.150;11.656;2022-09-09T08:03:36;5.35;;;1.30;;
15167;SDS011;7684;52.150;11.656;2022-09-09T08:06:04;4.70;;;1.50;;
15167;SDS011;7684;52.150;11.656;2022-09-09T08:08:31;2.40;;;1.27;;
15167;SDS011;7684;52.150;11.656;2022-09-09T08:11:06;5.28;;;2.33;;
15167;SDS011;7684;52.150;11.656;2022-09-09T08:13:34;4.43;;;1.40;;
15167;SDS011;7684;52.150;11.656;2022-09-09T08:16:04;3.97;;;1.20;;
15167;SDS011;7684;52.150;11.656;2022-09-09T08:18:33;4.50;;;1.35;;
15167;SDS011;7684;52.150;11.656;2022-09-09T08:21:10;5.45;;;1.35;;
15167;SDS011;7684;52.150;11.656;2022-09-09T08:23:38;4.60;;;1.63;;
15167;SDS011;7684;52.150;11.656;2022-09-09T08:26:07;4.18;;;1.33;;
15167;SDS011;7684;52.150;11.656;2022-09-09T08:28:34;4.60;;;1.20;;
15167;SDS011;7684;52.150;11.656;2022-09-09T08:31:07;2.42;;;1.10;;
15167;SDS011;7684;52.150;11.656;2022-09-09T08:33:36;2.88;;;1.50;;
15167;SDS011;7684;52.150;11.656;2022-09-09T08:36:04;2.92;;;1.00;;
15167;SDS011;7684;52.150;11.656;2022-09-09T08:38:31;4.25;;;1.30;;
15167;SDS011;7684;52.150;11.656;2022-09-09T08:41:01;3.00;;;1.20;;
15167;SDS011;7684;52.150;11.656;2022-09-09T08:43:31;2.03;;;1.00;;
15167;SDS011;7684;52.150;11.656;2022-09-09T08:46:00;1.95;;;0.95;;
15167;SDS011;7684;52.150;11.656;2022-09-09T08:48:34;4.03;;;1.10;;
15167;SDS011;7684;52.150;11.656;2022-09-09T08:51:08;2.67;;;1.08;;
15167;SDS011;7684;52.150;11.656;2022-09-09T08:53:36;1.30;;;0.80;;
15167;SDS011;7684;52.150;11.656;2022-09-09T08:56:06;2.58;;;1.02;;
15167;SDS011;7684;52.150;11.656;2022-09-09T08:58:34;3.30;;;1.02;;
15167;SDS011;7684;52.150;11.656;2022-09-09T09:01:05;3.20;;;1.08;;
15167;SDS011;7684;52.150;11.656;2022-09-09T09:03:38;3.72;;;1.20;;
15167;SDS011;7684;52.150;11.656;2022-09-09T09:06:09;2.22;;;1.05;;
15167;SDS011;7684;52.150;11.656;2022-09-09T09:08:40;2.33;;;1.00;;
15167;SDS011;7684;52.150;11.656;2022-09-09T09:11:10;1.98;;;0.77;;
15167;SDS011;7684;52.150;11.656;2022-09-09T09:13:38;4.38;;;0.93;;
15167;SDS011;7684;52.150;11.656;2022-09-09T09:16:10;3.40;;;1.17;;
15167;SDS011;7684;52.150;11.656;2022-09-09T09:18:40;3.65;;;0.98;;
15167;SDS011;7684;52.150;11.656;2022-09-09T09:21:10;3.67;;;1.00;;
15167;SDS011;7684;52.150;11.656;2022-09-09T09:23:40;2.40;;;0.90;;
15167;SDS011;7684;52.150;11.656;2022-09-09T09:26:09;2.35;;;0.90;;
15167;SDS011;7684;52.150;11.656;2022-09-09T09:28:36;2.13;;;1.02;;
15167;SDS011;7684;52.150;11.656;2022-09-09T09:31:03;2.97;;;0.88;;
15167;SDS011;7684;52.150;11.656;2022-09-09T09:33:32;4.13;;;0.80;;
15167;SDS011;7684;52.150;11.656;2022-09-09T09:35:59;2.90;;;0.90;;
15167;SDS011;7684;52.150;11.656;2022-09-09T09:38:28;3.60;;;0.80;;
15167;SDS011;7684;52.150;11.656;2022-09-09T09:40:55;2.90;;;0.57;;
15167;SDS011;7684;52.150;11.656;2022-09-09T09:43:24;2.28;;;0.80;;
15167;SDS011;7684;52.150;11.656;2022-09-09T09:45:51;1.55;;;0.80;;
15167;SDS011;7684;52.150;11.656;2022-09-09T09:48:17;1.83;;;0.70;;
15167;SDS011;7684;52.150;11.656;2022-09-09T09:50:47;2.92;;;1.10;;
15167;SDS011;7684;52.150;11.656;2022-09-09T09:53:19;2.10;;;0.82;;
15167;SDS011;7684;52.150;11.656;2022-09-09T09:55:48;2.03;;;0.70;;
15167;SDS011;7684;52.150;11.656;2022-09-09T09:58:16;4.03;;;0.90;;
15167;SDS011;7684;52.150;11.656;2022-09-09T10:00:47;1.77;;;0.77;;
15167;SDS011;7684;52.150;11.656;2022-09-09T10:03:19;2.45;;;0.85;;
15167;SDS011;7684;52.150;11.656;2022-09-09T10:05:46;1.75;;;0.68;;
15167;SDS011;7684;52.150;11.656;2022-09-09T10:08:13;2.50;;;1.13;;
15167;SDS011;7684;52.150;11.656;2022-09-09T10:13:31;3.08;;;0.70;;
15167;SDS011;7684;52.150;11.656;2022-09-09T10:16:01;2.60;;;0.77;;
15167;SDS011;7684;52.150;11.656;2022-09-09T10:18:50;2.45;;;0.80;;
15167;SDS011;7684;52.150;11.656;2022-09-09T10:21:25;2.65;;;0.95;;
15167;SDS011;7684;52.150;11.656;2022-09-09T10:23:59;3.13;;;0.85;;
15167;SDS011;7684;52.150;11.656;2022-09-09T10:26:34;2.95;;;0.82;;
15167;SDS011;7684;52.150;11.656;2022-09-09T10:29:15;4.68;;;1.40;;
15167;SDS011;7684;52.150;11.656;2022-09-09T10:31:48;3.72;;;1.15;;
15167;SDS011;7684;52.150;11.656;2022-09-09T10:34:17;1.58;;;0.80;;
15167;SDS011;7684;52.150;11.656;2022-09-09T10:36:47;2.20;;;0.95;;
15167;SDS011;7684;52.150;11.656;2022-09-09T10:39:18;2.85;;;0.90;;
15167;SDS011;7684;52.150;11.656;2022-09-09T10:41:52;3.38;;;0.88;;
15167;SDS011;7684;52.150;11.656;2022-09-09T10:47:21;4.32;;;1.00;;
15167;SDS011;7684;52.150;11.656;2022-09-09T10:50:04;3.03;;;0.50;;
15167;SDS011;7684;52.150;11.656;2022-09-09T10:52:35;2.50;;;0.75;;
15167;SDS011;7684;52.150;11.656;2022-09-09T10:55:07;2.50;;;0.57;;
15167;SDS011;7684;52.150;11.656;2022-09-09T10:57:37;1.67;;;0.60;;
15167;SDS011;7684;52.150;11.656;2022-09-09T11:00:06;2.80;;;0.70;;
15167;SDS011;7684;52.150;11.656;2022-09-09T11:02:35;2.80;;;0.80;;
15167;SDS011;7684;52.150;11.656;2022-09-09T11:05:03;2.85;;;0.80;;
15167;SDS011;7684;52.150;11.656;2022-09-09T11:07:37;3.22;;;1.15;;
15167;SDS011;7684;52.150;11.656;2022-09-09T11:10:06;3.33;;;0.80;;
15167;SDS011;7684;52.150;11.656;2022-09-09T11:12:33;2.60;;;0.73;;
15167;SDS011;7684;52.150;11.656;2022-09-09T11:15:03;3.92;;;0.90;;
15167;SDS011;7684;52.150;11.656;2022-09-09T11:17:33;1.48;;;0.73;;
15167;SDS011;7684;52.150;11.656;2022-09-09T11:20:02;2.97;;;0.90;;
15167;SDS011;7684;52.150;11.656;2022-09-09T11:22:32;4.70;;;0.88;;
15167;SDS011;7684;52.150;11.656;2022-09-09T11:25:00;3.15;;;0.60;;
15167;SDS011;7684;52.150;11.656;2022-09-09T11:27:29;3.30;;;0.80;;
15167;SDS011;7684;52.150;11.656;2022-09-09T11:30:02;3.08;;;0.50;;
15167;SDS011;7684;52.150;11.656;2022-09-09T11:32:36;3.70;;;0.75;;
15167;SDS011;7684;52.150;11.656;2022-09-09T11:35:10;3.75;;;0.95;;
15167;SDS011;7684;52.150;11.656;2022-09-09T11:37:50;3.95;;;0.82;;
15167;SDS011;7684;52.150;11.656;2022-09-09T11:40:21;3.30;;;0.77;;
15167;SDS011;7684;52.150;11.656;2022-09-09T11:42:48;2.55;;;0.65;;
15167;SDS011;7684;52.150;11.656;2022-09-09T11:45:19;3.47;;;0.88;;
15167;SDS011;7684;52.150;11.656;2022-09-09T11:47:51;1.40;;;0.70;;
15167;SDS011;7684;52.150;11.656;2022-09-09T11:50:28;1.45;;;0.65;;
15167;SDS011;7684;52.150;11.656;2022-09-09T11:53:03;2.20;;;0.52;;
15167;SDS011;7684;52.150;11.656;2022-09-09T11:55:31;1.85;;;0.55;;
15167;SDS011;7684;52.150;11.656;2022-09-09T11:57:58;1.48;;;0.70;;
15167;SDS011;7684;52.150;11.656;2022-09-09T12:00:32;1.98;;;0.60;;
15167;SDS011;7684;52.150;11.656;2022-09-09T12:02:59;1.90;;;0.70;;
15167;SDS011;7684;52.150;11.656;2022-09-09T12:05:36;1.25;;;0.50;;
15167;SDS011;7684;52.150;11.656;2022-09-09T12:08:03;1.92;;;0.63;;
15167;SDS011;7684;52.150;11.656;2022-09-09T12:10:39;1.65;;;0.70;;
15167;SDS011;7684;52.150;11.656;2022-09-09T12:13:15;1.63;;;0.68;;
15167;SDS011;7684;52.150;11.656;2022-09-09T12:15:46;3.13;;;0.88;;
15167;SDS011;7684;52.150;11.656;2022-09-09T12:18:14;1.70;;;0.60;;
15167;SDS011;7684;52.150;11.656;2022-09-09T12:20:42;3.08;;;0.60;;
15167;SDS011;7684;52.150;11.656;2022-09-09T12:23:21;1.70;;;0.60;;
15167;SDS011;7684;52.150;11.656;2022-09-09T12:25:52;2.30;;;0.65;;
15167;SDS011;7684;52.150;11.656;2022-09-09T12:28:22;2.42;;;0.80;;
15167;SDS011;7684;52.150;11.656;2022-09-09T12:30:49;2.17;;;0.68;;
15167;SDS011;7684;52.150;11.656;2022-09-09T12:33:20;1.25;;;0.60;;
15167;SDS011;7684;52.150;11.656;2022-09-09T12:35:49;2.75;;;0.70;;
15167;SDS011;7684;52.150;11.656;2022-09-09T12:38:19;2.83;;;0.70;;
15167;SDS011;7684;52.150;11.656;2022-09-09T12:40:53;1.98;;;0.80;;
15167;SDS011;7684;52.150;11.656;2022-09-09T12:43:21;2.65;;;0.82;;
15167;SDS011;7684;52.150;11.656;2022-09-09T12:45:48;1.90;;;0.90;;
15167;SDS011;7684;52.150;11.656;2022-09-09T12:48:15;3.28;;;0.65;;
15167;SDS011;7684;52.150;11.656;2022-09-09T12:50:44;2.53;;;0.95;;
15167;SDS011;7684;52.150;11.656;2022-09-09T12:53:15;1.75;;;0.80;;
15167;SDS011;7684;52.150;11.656;2022-09-09T12:55:48;1.90;;;0.85;;
15167;SDS011;7684;52.150;11.656;2022-09-09T12:58:16;2.13;;;0.77;;
15167;SDS011;7684;52.150;11.656;2022-09-09T13:00:48;3.38;;;0.90;;
15167;SDS011;7684;52.150;11.656;2022-09-09T13:03:16;2.28;;;0.73;;
15167;SDS011;7684;52.150;11.656;2022-09-09T13:05:42;2.22;;;0.80;;
15167;SDS011;7684;52.150;11.656;2022-09-09T13:08:09;2.08;;;0.63;;
15167;SDS011;7684;52.150;11.656;2022-09-09T13:10:38;2.38;;;0.68;;
15167;SDS011;7684;52.150;11.656;2022-09-09T13:13:11;2.40;;;0.68;;
15167;SDS011;7684;52.150;11.656;2022-09-09T13:15:39;2.80;;;0.70;;
15167;SDS011;7684;52.150;11.656;2022-09-09T13:18:06;2.38;;;0.80;;
15167;SDS011;7684;52.150;11.656;2022-09-09T13:20:33;3.47;;;0.80;;
15167;SDS011;7684;52.150;11.656;2022-09-09T13:22:59;2.15;;;0.70;;
15167;SDS011;7684;52.150;11.656;2022-09-09T13:25:27;1.83;;;0.80;;
15167;SDS011;7684;52.150;11.656;2022-09-09T13:27:57;1.98;;;0.60;;
15167;SDS011;7684;52.150;11.656;2022-09-09T13:30:24;5.55;;;0.73;;
15167;SDS011;7684;52.150;11.656;2022-09-09T13:33:05;1.65;;;0.60;;
15167;SDS011;7684;52.150;11.656;2022-09-09T13:35:32;1.20;;;0.60;;
15167;SDS011;7684;52.150;11.656;2022-09-09T13:37:59;2.83;;;0.77;;
15167;SDS011;7684;52.150;11.656;2022-09-09T13:40:32;2.60;;;0.80;;
15167;SDS011;7684;52.150;11.656;2022-09-09T13:43:00;2.45;;;0.50;;
15167;SDS011;7684;52.150;11.656;2022-09-09T13:45:28;2.78;;;0.90;;
15167;SDS011;7684;52.150;11.656;2022-09-09T13:47:55;4.07;;;0.82;;
15167;SDS011;7684;52.150;11.656;2022-09-09T13:50:22;5.25;;;0.75;;
15167;SDS011;7684;52.150;11.656;2022-09-09T13:52:48;3.67;;;0.82;;
15167;SDS011;7684;52.150;11.656;2022-09-09T13:55:16;2.42;;;0.82;;
15167;SDS011;7684;52.150;11.656;2022-09-09T13:57:50;3.78;;;0.65;;
15167;SDS011;7684;52.150;11.656;2022-09-09T14:00:18;4.10;;;0.93;;
15167;SDS011;7684;52.150;11.656;2022-09-09T14:02:44;2.15;;;0.82;;
15167;SDS011;7684;52.150;11.656;2022-09-09T14:05:11;2.78;;;1.00;;
15167;SDS011;7684;52.150;11.656;2022-09-09T14:07:37;3.58;;;0.70;;
15167;SDS011;7684;52.150;11.656;2022-09-09T14:10:05;1.83;;;0.60;;
15167;SDS011;7684;52.150;11.656;2022-09-09T14:12:32;2.25;;;0.90;;
15167;SDS011;7684;52.150;11.656;2022-09-09T14:14:58;1.67;;;0.77;;
15167;SDS011;7684;52.150;11.656;2022-09-09T14:17:27;4.05;;;0.82;;
15167;SDS011;7684;52.150;11.656;2022-09-09T14:19:55;1.48;;;0.50;;
15167;SDS011;7684;52.150;11.656;2022-09-09T14:22:22;1.38;;;0.68;;
15167;SDS011;7684;52.150;11.656;2022-09-09T14:24:48;2.13;;;0.65;;
15167;SDS011;7684;52.150;11.656;2022-09-09T14:27:15;2.30;;;0.82;;
15167;SDS011;7684;52.150;11.656;2022-09-09T14:29:43;3.25;;;0.75;;
15167;SDS011;7684;52.150;11.656;2022-09-09T14:32:10;1.20;;;0.60;;
15167;SDS011;7684;52.150;11.656;2022-09-09T14:34:38;2.60;;;1.00;;
15167;SDS011;7684;52.150;11.656;2022-09-09T14:37:05;3.38;;;0.68;;
15167;SDS011;7684;52.150;11.656;2022-09-09T14:39:31;3.85;;;0.65;;
15167;SDS011;7684;52.150;11.656;2022-09-09T14:41:58;3.40;;;0.50;;
15167;SDS011;7684;52.150;11.656;2022-09-09T14:44:24;3.60;;;0.50;;
15167;SDS011;7684;52.150;11.656;2022-09-09T14:46:51;1.75;;;0.70;;
15167;SDS011;7684;52.150;11.656;2022-09-09T14:49:18;1.02;;;0.40;;
15167;SDS011;7684;52.150;11.656;2022-09-09T14:51:46;1.92;;;0.50;;
15167;SDS011;7684;52.150;11.656;2022-09-09T14:54:12;1.88;;;0.57;;
15167;SDS011;7684;52.150;11.656;2022-09-09T14:56:39;3.25;;;0.50;;
15167;SDS011;7684;52.150;11.656;2022-09-09T14:59:06;2.88;;;0.60;;
15167;SDS011;7684;52.150;11.656;2022-09-09T15:01:32;4.05;;;0.40;;
15167;SDS011;7684;52.150;11.656;2022-09-09T15:04:00;0.88;;;0.40;;